Time;durP1;ratioP1;P1;durP2;ratioP2;P2;SDS_P1;SDS_P2;PMS_P1;PMS_P2;Temp;Humidity;BMP_temperature;BMP_pressure;BME280_temperature;BME280_humidity;BME280_pressure;Samples;Min_cycle;Max_cycle;Signal;HPM_P1;HPM_P2
2022/07/23 00:01:56;;;;;;;34.50;25.83;;;;;;;23.73;69.58;97886.91;5010230;28;20506;-72
2022/07/23 00:04:22;;;;;;;36.30;25.10;;;;;;;23.73;69.34;97888.88;5009743;28;20033;-74
2022/07/23 00:06:47;;;;;;;33.15;25.55;;;;;;;23.71;69.67;97888.47;5009657;28;20498;-74
2022/07/23 00:09:12;;;;;;;38.25;26.70;;;;;;;23.80;69.05;97894.56;5007777;28;20030;-73
2022/07/23 00:11:38;;;;;;;36.70;26.58;;;;;;;23.80;68.67;97895.34;5010604;28;20152;-73
2022/07/23 00:14:03;;;;;;;37.83;27.10;;;;;;;23.81;68.69;97894.16;5009964;28;20025;-73
2022/07/23 00:16:29;;;;;;;34.80;26.48;;;;;;;23.77;69.08;97896.13;5009929;28;20065;-73
2022/07/23 00:18:54;;;;;;;37.00;25.35;;;;;;;23.76;68.54;97888.13;5009311;28;20045;-73
2022/07/23 00:21:19;;;;;;;38.80;27.10;;;;;;;23.72;68.79;97881.69;5010330;28;20022;-73
2022/07/23 00:23:45;;;;;;;32.40;25.92;;;;;;;23.65;69.41;97887.22;5009837;28;20033;-74
2022/07/23 00:26:10;;;;;;;36.55;27.00;;;;;;;23.55;69.89;97897.09;5009596;28;20038;-74
2022/07/23 00:28:36;;;;;;;35.05;26.33;;;;;;;23.56;69.65;97886.69;5011106;28;20124;-74
2022/07/23 00:31:02;;;;;;;31.65;25.25;;;;;;;23.38;69.91;97894.84;5010710;28;20116;-73
2022/07/23 00:33:27;;;;;;;34.53;25.20;;;;;;;23.15;70.59;97891.38;5011292;28;20061;-73
2022/07/23 00:35:52;;;;;;;35.00;25.77;;;;;;;23.14;71.04;97890.56;5012276;28;20403;-73
2022/07/23 00:38:18;;;;;;;35.53;25.08;;;;;;;23.08;70.90;97897.66;5011445;28;20037;-73
2022/07/23 00:40:43;;;;;;;34.00;25.13;;;;;;;23.01;71.42;97892.00;5011051;28;20029;-73
2022/07/23 00:43:08;;;;;;;32.22;24.67;;;;;;;22.94;71.75;97903.03;5011052;28;20026;-73
2022/07/23 00:45:34;;;;;;;35.03;25.05;;;;;;;22.93;72.55;97904.22;5010947;28;20368;-74
2022/07/23 00:47:59;;;;;;;33.35;25.13;;;;;;;22.83;73.55;97902.09;5010709;28;20033;-74
2022/07/23 00:50:25;;;;;;;32.10;24.15;;;;;;;22.80;73.45;97909.25;5010843;28;20037;-73
2022/07/23 00:52:52;;;;;;;31.25;24.95;;;;;;;22.80;72.76;97897.28;5010847;28;20091;-73
2022/07/23 00:55:17;;;;;;;34.97;25.90;;;;;;;22.76;72.53;97899.22;5011153;28;20032;-73
2022/07/23 00:57:42;;;;;;;29.27;24.25;;;;;;;22.74;72.14;97898.78;4993212;28;20360;-74
2022/07/23 01:00:11;;;;;;;34.53;24.15;;;;;;;22.76;72.15;97896.41;5011147;28;20497;-73
2022/07/23 01:02:38;;;;;;;32.15;24.08;;;;;;;22.85;72.01;97888.56;5011030;28;20034;-75
2022/07/23 01:05:04;;;;;;;29.25;23.70;;;;;;;22.77;72.86;97886.88;5010943;28;20034;-74
2022/07/23 01:07:29;;;;;;;35.20;25.50;;;;;;;22.73;72.87;97886.00;5010636;28;20426;-73
2022/07/23 01:09:55;;;;;;;33.47;24.98;;;;;;;22.68;73.29;97877.97;5010969;28;20037;-75
2022/07/23 01:12:21;;;;;;;32.20;23.92;;;;;;;22.55;73.53;97871.78;5010838;28;20072;-74
2022/07/23 01:14:57;;;;;;;35.42;25.17;;;;;;;22.69;73.46;97866.44;5010901;28;20029;-74
2022/07/23 01:17:23;;;;;;;31.25;24.60;;;;;;;22.63;73.07;97864.31;5010759;28;20471;-74
2022/07/23 01:19:49;;;;;;;32.95;25.08;;;;;;;22.55;73.95;97863.44;5010886;28;20108;-72
2022/07/23 01:22:17;;;;;;;31.40;23.08;;;;;;;22.54;74.12;97866.56;5010753;28;20022;-74
2022/07/23 01:24:42;;;;;;;30.92;23.20;;;;;;;22.66;73.91;97863.59;5011094;28;20030;-74
2022/07/23 01:27:08;;;;;;;30.92;24.63;;;;;;;22.64;73.95;97863.94;5010432;28;20022;-74
2022/07/23 01:29:33;;;;;;;39.20;24.65;;;;;;;22.56;74.13;97853.06;5010954;28;20489;-74
2022/07/23 01:31:58;;;;;;;30.25;23.92;;;;;;;22.63;73.90;97855.94;4993115;28;20084;-74
2022/07/23 01:34:23;;;;;;;31.70;23.83;;;;;;;22.61;73.72;97855.53;5010535;28;20483;-75
2022/07/23 01:36:49;;;;;;;31.58;23.80;;;;;;;22.62;73.62;97851.53;5010630;28;20125;-73
2022/07/23 01:39:14;;;;;;;31.77;23.45;;;;;;;22.66;73.94;97852.44;5010707;28;20049;-74
2022/07/23 01:41:40;;;;;;;29.38;23.42;;;;;;;22.70;74.05;97837.38;5010664;28;20119;-74
2022/07/23 01:44:05;;;;;;;27.00;22.42;;;;;;;22.69;74.11;97848.88;4993144;28;20494;-73
2022/07/23 01:46:31;;;;;;;31.92;24.08;;;;;;;22.64;74.56;97849.19;5010576;28;20021;-73
2022/07/23 01:48:56;;;;;;;29.98;23.30;;;;;;;22.48;75.49;97851.34;5010491;28;20570;-74
2022/07/23 01:51:21;;;;;;;31.77;23.77;;;;;;;22.32;76.85;97855.09;5010605;28;20031;-73
2022/07/23 01:53:47;;;;;;;32.47;23.50;;;;;;;22.41;76.38;97847.28;4993274;28;20049;-73
2022/07/23 01:56:14;;;;;;;30.05;23.00;;;;;;;22.30;76.98;97849.09;5010426;28;20030;-74
2022/07/23 01:58:40;;;;;;;31.73;21.88;;;;;;;22.14;77.79;97859.59;5010479;28;20065;-73
2022/07/23 02:01:05;;;;;;;34.08;23.25;;;;;;;21.97;78.65;97848.94;5011518;28;20125;-73
2022/07/23 02:03:30;;;;;;;28.88;22.63;;;;;;;21.86;79.72;97850.72;5014079;28;20034;-74
2022/07/23 02:05:56;;;;;;;29.10;21.67;;;;;;;22.03;78.84;97853.03;5013990;28;20117;-73
2022/07/23 02:08:21;;;;;;;32.38;23.50;;;;;;;22.03;78.61;97857.78;5014304;28;20094;-74
2022/07/23 02:10:47;;;;;;;32.20;23.67;;;;;;;22.10;78.37;97866.28;5014193;28;20113;-75
2022/07/23 02:13:12;;;;;;;28.95;22.13;;;;;;;21.98;78.54;97863.69;5013786;28;20479;-72
2022/07/23 02:15:38;;;;;;;30.30;22.90;;;;;;;21.90;77.99;97864.75;5013934;28;20044;-74
2022/07/23 02:18:04;;;;;;;29.92;22.35;;;;;;;21.77;78.52;97873.25;5013739;28;20026;-75
2022/07/23 02:20:29;;;;;;;26.23;20.67;;;;;;;21.80;78.33;97878.06;5011562;28;20034;-73
2022/07/23 02:22:54;;;;;;;27.55;22.30;;;;;;;21.78;77.79;97874.84;5013792;28;20026;-73
2022/07/23 02:25:20;;;;;;;28.08;20.73;;;;;;;21.84;77.70;97875.34;5014394;28;20069;-72
2022/07/23 02:27:45;;;;;;;26.92;21.00;;;;;;;21.81;77.97;97882.47;5015185;28;20100;-73
2022/07/23 02:30:12;;;;;;;30.85;22.42;;;;;;;21.79;78.09;97881.25;5016889;28;20025;-74
2022/07/23 02:32:39;;;;;;;27.45;21.85;;;;;;;21.75;78.09;97885.94;5019747;28;21106;-74
2022/07/23 02:35:05;;;;;;;27.45;20.65;;;;;;;21.73;78.38;97891.09;5020097;28;20049;-74
2022/07/23 02:37:31;;;;;;;32.08;23.35;;;;;;;21.83;78.01;97884.91;5015076;28;20117;-73
2022/07/23 02:39:56;;;;;;;35.70;24.13;;;;;;;21.82;78.29;97886.88;5013822;28;20113;-73
2022/07/23 02:42:23;;;;;;;29.67;22.65;;;;;;;21.85;78.39;97874.19;5013913;28;20382;-73
2022/07/23 02:44:49;;;;;;;28.60;22.38;;;;;;;21.88;78.22;97874.28;5013826;28;20064;-73
2022/07/23 02:47:14;;;;;;;29.52;23.35;;;;;;;21.95;77.90;97868.03;5013382;28;20061;-73
2022/07/23 02:49:39;;;;;;;30.15;21.42;;;;;;;21.90;78.41;97875.91;5013935;28;20402;-72
2022/07/23 02:52:04;;;;;;;32.83;23.40;;;;;;;21.80;79.62;97866.16;5014098;28;20098;-73
2022/07/23 02:54:30;;;;;;;30.45;22.95;;;;;;;21.88;78.75;97865.09;4996092;28;20026;-74
2022/07/23 02:56:55;;;;;;;29.90;22.13;;;;;;;21.79;79.58;97868.13;5013375;28;20032;-73
2022/07/23 02:59:22;;;;;;;30.55;22.40;;;;;;;21.74;80.49;97868.41;5013212;28;20030;-72
2022/07/23 03:01:47;;;;;;;27.35;21.48;;;;;;;21.69;80.63;97862.34;5013162;28;20026;-73
2022/07/23 03:04:12;;;;;;;23.13;18.55;;;;;;;21.54;82.32;97866.88;5012815;28;20035;-72
2022/07/23 03:06:38;;;;;;;30.73;19.58;;;;;;;21.53;82.93;97875.56;5013097;28;20072;-73
2022/07/23 03:09:04;;;;;;;27.38;20.65;;;;;;;21.63;82.23;97883.31;5013010;28;20042;-73
2022/07/23 03:11:30;;;;;;;25.60;20.20;;;;;;;21.64;82.36;97885.75;5013002;28;20487;-74
2022/07/23 03:13:55;;;;;;;27.70;20.33;;;;;;;21.58;82.76;97878.06;5011947;28;20026;-73
2022/07/23 03:16:21;;;;;;;30.80;21.23;;;;;;;21.41;83.48;97881.31;5012742;28;20106;-73
2022/07/23 03:18:46;;;;;;;30.70;21.25;;;;;;;21.39;83.57;97889.22;5012739;28;20029;-74
2022/07/23 03:21:11;;;;;;;27.58;20.48;;;;;;;21.21;84.70;97889.66;5012675;28;20498;-73
2022/07/23 03:23:37;;;;;;;29.08;20.88;;;;;;;21.07;85.94;97888.53;5012763;28;20022;-73
2022/07/23 03:26:03;;;;;;;24.55;19.75;;;;;;;21.06;86.10;97903.63;5012881;28;20064;-73
2022/07/23 03:28:28;;;;;;;26.35;20.02;;;;;;;20.97;86.74;97901.06;5012664;28;20037;-73
2022/07/23 03:30:54;;;;;;;31.67;20.80;;;;;;;20.89;87.60;97913.22;5012593;28;20391;-72
2022/07/23 03:33:20;;;;;;;27.70;21.38;;;;;;;20.86;87.82;97916.72;5012589;28;20049;-72
2022/07/23 03:35:47;;;;;;;26.70;20.15;;;;;;;20.83;88.07;97918.22;5012230;28;20461;-73
2022/07/23 03:38:13;;;;;;;27.17;20.98;;;;;;;20.82;87.93;97907.47;5012645;28;20026;-74
2022/07/23 03:40:38;;;;;;;32.65;21.35;;;;;;;20.90;87.16;97911.19;5013297;28;20067;-73
2022/07/23 03:43:04;;;;;;;33.65;21.40;;;;;;;21.09;85.26;97914.03;5013294;28;20021;-74
2022/07/23 03:45:29;;;;;;;29.95;21.95;;;;;;;21.02;85.68;97914.66;5012745;28;20499;-74
2022/07/23 03:47:55;;;;;;;30.88;21.65;;;;;;;21.09;85.29;97914.84;5011939;28;20030;-73
2022/07/23 03:50:20;;;;;;;37.05;21.58;;;;;;;21.07;85.68;97919.16;5012255;28;20471;-73
2022/07/23 03:52:46;;;;;;;28.33;21.48;;;;;;;20.93;86.55;97918.81;5012226;28;20040;-73
2022/07/23 03:55:11;;;;;;;26.90;20.75;;;;;;;20.85;87.32;97926.22;4994919;28;20116;-75
2022/07/23 03:57:36;;;;;;;25.80;20.63;;;;;;;20.96;86.97;97926.44;5012264;28;20033;-73
2022/07/23 04:00:05;;;;;;;27.40;21.45;;;;;;;20.99;87.15;97932.06;5012033;28;20037;-73
2022/07/23 04:02:31;;;;;;;26.52;20.40;;;;;;;21.21;85.66;97939.75;5011852;28;20026;-73
2022/07/23 04:04:56;;;;;;;29.35;21.35;;;;;;;21.42;84.43;97919.91;5012382;28;20382;-74
2022/07/23 04:07:21;;;;;;;28.60;21.50;;;;;;;21.58;83.51;97936.53;5011932;28;20041;-73
2022/07/23 04:09:47;;;;;;;28.40;21.08;;;;;;;21.61;83.32;97936.63;5011884;28;20037;-74
2022/07/23 04:12:13;;;;;;;32.47;21.73;;;;;;;21.56;83.38;97931.31;5011614;28;20025;-73
2022/07/23 04:14:38;;;;;;;34.90;22.13;;;;;;;21.60;82.77;97934.19;5011824;28;20022;-74
2022/07/23 04:17:03;;;;;;;28.73;21.15;;;;;;;21.71;82.18;97929.59;5011693;28;20029;-73
2022/07/23 04:19:30;;;;;;;31.38;21.67;;;;;;;21.87;80.79;97933.91;4994219;28;20549;-74
2022/07/23 04:21:55;;;;;;;25.80;19.83;;;;;;;21.92;77.76;97934.81;5011562;28;20022;-74
2022/07/23 04:24:21;;;;;;;25.80;18.92;;;;;;;21.96;77.24;97936.47;5011625;28;20651;-75
2022/07/23 04:26:46;;;;;;;25.65;18.73;;;;;;;22.03;75.21;97931.03;5011555;28;20037;-74
2022/07/23 04:29:11;;;;;;;21.65;16.73;;;;;;;22.25;72.96;97921.88;5011520;28;20038;-72
2022/07/23 04:31:37;;;;;;;22.35;17.15;;;;;;;22.31;71.62;97920.38;5011535;28;20482;-74
2022/07/23 04:34:02;;;;;;;24.55;16.73;;;;;;;22.52;70.68;97925.53;5011409;28;20117;-74
2022/07/23 04:36:27;;;;;;;24.67;17.73;;;;;;;22.96;68.92;97933.38;5011276;28;20046;-74
2022/07/23 04:38:54;;;;;;;27.60;19.05;;;;;;;23.29;66.87;97931.44;5011369;28;20478;-75
2022/07/23 04:41:19;;;;;;;22.33;17.52;;;;;;;23.37;65.77;97926.72;5017213;28;20124;-73
2022/07/23 04:43:44;;;;;;;25.20;18.40;;;;;;;22.99;66.56;97927.84;5017534;28;20065;-74
2022/07/23 04:46:10;;;;;;;23.00;18.23;;;;;;;22.55;68.06;97924.78;5016259;28;20048;-74
2022/07/23 04:48:36;;;;;;;23.90;18.75;;;;;;;22.82;66.95;97936.75;5011282;28;20473;-75
2022/07/23 04:51:01;;;;;;;26.10;19.33;;;;;;;23.11;66.01;97924.81;5011547;28;20026;-73
2022/07/23 04:53:27;;;;;;;27.10;18.80;;;;;;;23.74;63.19;97924.03;5011254;28;20113;-73
2022/07/23 04:55:52;;;;;;;24.23;20.05;;;;;;;24.00;62.81;97932.25;5011608;28;20049;-73
2022/07/23 04:58:18;;;;;;;25.02;18.08;;;;;;;24.21;61.73;97938.13;5011189;28;20061;-72
2022/07/23 05:00:43;;;;;;;21.42;16.88;;;;;;;23.91;62.79;97928.97;5011125;28;20068;-73
2022/07/23 05:03:08;;;;;;;23.45;17.63;;;;;;;24.19;63.03;97922.91;5011035;28;20476;-74
2022/07/23 05:05:34;;;;;;;26.52;17.95;;;;;;;25.03;59.60;97928.34;5011088;28;20431;-73
2022/07/23 05:07:59;;;;;;;29.33;17.13;;;;;;;25.01;58.77;97928.75;5011056;28;20037;-72
2022/07/23 05:10:24;;;;;;;26.70;17.42;;;;;;;25.11;58.39;97926.41;5011067;28;20084;-72
2022/07/23 05:12:50;;;;;;;27.42;16.40;;;;;;;24.46;62.98;97919.53;5011076;28;20729;-73
2022/07/23 05:15:15;;;;;;;23.17;15.68;;;;;;;24.06;64.80;97925.13;5010937;28;20018;-73
2022/07/23 05:17:40;;;;;;;22.48;16.58;;;;;;;24.14;64.00;97921.28;5010878;28;20080;-74
2022/07/23 05:20:06;;;;;;;20.48;16.15;;;;;;;24.57;63.28;97921.63;5011532;28;20536;-74
2022/07/23 05:22:32;;;;;;;20.05;15.95;;;;;;;24.90;61.08;97925.06;5008583;28;20113;-69
2022/07/23 05:24:58;;;;;;;23.08;17.65;;;;;;;24.40;62.11;97923.09;5001806;28;20117;-72
2022/07/23 05:27:23;;;;;;;24.75;17.55;;;;;;;24.36;62.90;97923.06;4990880;28;20121;-71
2022/07/23 05:29:49;;;;;;;26.85;18.80;;;;;;;24.46;62.16;97922.31;5001819;28;20030;-70
2022/07/23 05:32:14;;;;;;;25.08;18.95;;;;;;;24.65;59.05;97918.50;5010394;28;20026;-71
2022/07/23 05:34:39;;;;;;;23.65;18.15;;;;;;;25.09;58.45;97910.00;5010302;28;20507;-71
2022/07/23 05:37:05;;;;;;;22.17;18.27;;;;;;;25.12;58.76;97914.03;5013261;28;20096;-71
2022/07/23 05:39:31;;;;;;;27.00;19.13;;;;;;;24.57;58.70;97911.22;5014358;28;20072;-70
2022/07/23 05:41:56;;;;;;;20.52;16.35;;;;;;;24.72;59.49;97903.72;5003265;28;20062;-72
2022/07/23 05:44:22;;;;;;;25.77;17.27;;;;;;;25.01;58.09;97914.75;4994689;28;20030;-71
2022/07/23 05:46:47;;;;;;;25.77;17.20;;;;;;;25.03;58.01;97914.34;4994235;28;20077;-71
2022/07/23 05:49:12;;;;;;;22.17;16.75;;;;;;;25.14;58.04;97911.63;4993342;28;20062;-73
2022/07/23 05:51:38;;;;;;;26.42;18.67;;;;;;;25.16;56.91;97912.84;4996513;28;20076;-82
2022/07/23 05:54:03;;;;;;;26.35;18.50;;;;;;;25.10;57.16;97910.78;4999641;28;20409;-75
2022/07/23 05:56:28;;;;;;;28.77;18.48;;;;;;;24.85;57.61;97916.25;4995221;28;20033;-76
2022/07/23 05:58:54;;;;;;;23.92;18.98;;;;;;;24.69;57.27;97908.13;4995154;28;20138;-75
2022/07/23 06:01:19;;;;;;;25.40;18.73;;;;;;;25.04;57.05;97916.78;4995128;28;20383;-74
2022/07/23 06:03:44;;;;;;;24.88;18.65;;;;;;;25.39;56.01;97912.53;4996023;28;20395;-71
2022/07/23 06:06:10;;;;;;;21.80;16.30;;;;;;;25.86;55.36;97917.13;4996289;28;20034;-72
2022/07/23 06:08:35;;;;;;;23.25;17.60;;;;;;;26.33;54.44;97916.84;4995372;28;20097;-74
2022/07/23 06:11:00;;;;;;;25.02;17.70;;;;;;;26.35;54.30;97925.63;4994262;28;20475;-71
2022/07/23 06:13:26;;;;;;;22.08;17.65;;;;;;;26.85;52.28;97922.81;4994066;28;20034;-70
2022/07/23 06:15:51;;;;;;;25.58;18.60;;;;;;;26.67;53.33;97914.41;4994029;28;20060;-71
2022/07/23 06:18:16;;;;;;;26.15;17.67;;;;;;;26.75;53.34;97921.59;5006628;28;20038;-70
2022/07/23 06:20:42;;;;;;;22.83;17.02;;;;;;;26.38;54.33;97919.22;5013264;28;20117;-69
2022/07/23 06:23:07;;;;;;;22.50;17.48;;;;;;;26.81;52.61;97922.06;5013239;28;20510;-68
2022/07/23 06:25:32;;;;;;;22.95;17.10;;;;;;;26.72;52.98;97930.06;5013953;28;20028;-69
2022/07/23 06:27:58;;;;;;;25.27;17.95;;;;;;;26.55;52.26;97918.44;5012360;28;20030;-70
2022/07/23 06:30:23;;;;;;;26.70;18.13;;;;;;;26.33;53.56;97922.44;5012169;28;20450;-69
2022/07/23 06:32:49;;;;;;;24.92;18.10;;;;;;;26.40;53.21;97928.06;5012760;28;20030;-70
2022/07/23 06:35:15;;;;;;;25.17;18.77;;;;;;;26.43;52.34;97920.84;5012361;28;20057;-72
2022/07/23 06:37:41;;;;;;;25.58;18.33;;;;;;;26.55;52.79;97931.66;5013293;28;20486;-73
2022/07/23 06:40:06;;;;;;;27.50;20.02;;;;;;;26.93;52.11;97922.44;5013335;28;20033;-73
2022/07/23 06:42:32;;;;;;;29.13;19.25;;;;;;;27.41;50.80;97919.09;5013274;28;20113;-72
2022/07/23 06:44:57;;;;;;;26.23;18.23;;;;;;;27.71;49.77;97915.75;5013499;28;20573;-77
2022/07/23 06:47:23;;;;;;;26.58;18.67;;;;;;;27.91;49.33;97930.94;5013561;28;20072;-74
2022/07/23 06:49:48;;;;;;;25.88;19.20;;;;;;;27.92;49.64;97932.50;5013860;28;20060;-75
2022/07/23 06:52:13;;;;;;;25.05;17.98;;;;;;;27.57;51.23;97934.28;5013120;28;20025;-73
2022/07/23 06:54:39;;;;;;;23.73;17.40;;;;;;;28.01;50.85;97941.28;5013552;28;20045;-74
2022/07/23 06:57:04;;;;;;;31.20;19.08;;;;;;;27.99;50.53;97938.91;5013093;28;20026;-72
2022/07/23 06:59:29;;;;;;;22.00;18.10;;;;;;;27.66;51.56;97926.22;5013767;28;20132;-74
2022/07/23 07:01:55;;;;;;;36.80;20.50;;;;;;;27.58;52.08;97930.28;5016203;28;20037;-74
2022/07/23 07:04:20;;;;;;;25.00;18.42;;;;;;;27.75;51.68;97928.59;5012282;28;20080;-73
2022/07/23 07:06:46;;;;;;;35.33;19.30;;;;;;;28.00;51.15;97939.72;5012947;28;20439;-73
2022/07/23 07:09:11;;;;;;;26.80;18.23;;;;;;;28.18;50.38;97944.06;5012286;28;20030;-73
2022/07/23 07:11:36;;;;;;;27.70;19.55;;;;;;;28.39;49.45;97934.63;5013180;28;20486;-74
2022/07/23 07:14:02;;;;;;;23.95;18.50;;;;;;;28.20;49.50;97940.81;5012900;28;20042;-72
2022/07/23 07:16:27;;;;;;;29.92;19.00;;;;;;;28.18;49.47;97940.44;5012420;28;20105;-72
2022/07/23 07:18:52;;;;;;;28.40;18.83;;;;;;;28.38;48.82;97941.47;5012702;28;20030;-71
2022/07/23 07:21:18;;;;;;;25.90;18.92;;;;;;;28.26;48.96;97944.78;5012771;28;20358;-72
2022/07/23 07:23:43;;;;;;;23.90;18.75;;;;;;;28.78;47.45;97944.81;5012243;28;20030;-72
2022/07/23 07:26:08;;;;;;;23.80;17.65;;;;;;;29.04;47.00;97936.50;5012081;28;20026;-73
2022/07/23 07:28:34;;;;;;;31.35;19.35;;;;;;;29.57;45.50;97944.38;5012371;28;20125;-73
2022/07/23 07:30:59;;;;;;;32.05;18.70;;;;;;;29.31;45.67;97942.28;5013313;28;20490;-76
2022/07/23 07:33:24;;;;;;;23.02;17.92;;;;;;;29.47;45.87;97941.72;5013146;28;20362;-79
2022/07/23 07:35:50;;;;;;;23.27;17.73;;;;;;;29.75;44.75;97942.16;5013636;28;20562;-74
2022/07/23 07:38:15;;;;;;;26.70;18.50;;;;;;;29.74;44.88;97934.91;5013030;28;20038;-72
2022/07/23 07:40:41;;;;;;;29.20;19.83;;;;;;;29.85;44.78;97942.47;5012998;28;20483;-71
2022/07/23 07:43:06;;;;;;;23.25;18.23;;;;;;;30.06;43.65;97940.16;5012023;28;20486;-71
2022/07/23 07:45:32;;;;;;;29.83;19.17;;;;;;;30.10;44.05;97945.75;5012617;28;20030;-77
2022/07/23 07:47:57;;;;;;;26.25;18.70;;;;;;;29.71;43.81;97938.59;5014170;28;20029;-77
2022/07/23 07:50:23;;;;;;;28.92;19.25;;;;;;;29.58;44.02;97931.09;5010707;28;20018;-73
2022/07/23 07:52:49;;;;;;;28.90;19.75;;;;;;;29.86;43.94;97924.31;5011473;28;20513;-81
2022/07/23 07:55:14;;;;;;;26.30;19.42;;;;;;;30.01;43.92;97937.78;5012113;28;20113;-72
2022/07/23 07:57:40;;;;;;;25.67;20.00;;;;;;;29.80;43.25;97932.41;5012121;28;20041;-74
2022/07/23 08:00:08;;;;;;;27.52;18.15;;;;;;;29.85;44.05;97928.38;5010650;28;20034;-75
2022/07/23 08:02:45;;;;;;;27.08;19.10;;;;;;;30.03;43.14;97931.72;5010098;28;20022;-73
2022/07/23 08:05:12;;;;;;;27.05;20.33;;;;;;;30.09;43.17;97928.00;5011261;28;20026;-77
2022/07/23 08:07:39;;;;;;;28.58;18.77;;;;;;;30.03;42.93;97928.91;5015211;28;20025;-79
2022/07/23 08:10:09;;;;;;;26.95;18.65;;;;;;;30.87;47.70;97932.44;5011912;28;20049;-73
2022/07/23 08:12:46;;;;;;;26.70;19.70;;;;;;;31.18;46.74;97924.63;5007935;28;20494;-72
2022/07/23 08:15:14;;;;;;;27.27;20.52;;;;;;;30.59;46.05;97927.25;5011144;28;20535;-71
2022/07/23 08:17:40;;;;;;;25.83;20.10;;;;;;;30.47;42.88;97925.03;4994730;28;20406;-75
2022/07/23 08:20:07;;;;;;;26.58;20.17;;;;;;;30.49;41.44;97920.56;5017007;28;20037;-73
2022/07/23 08:23:05;;;;;;;27.48;21.23;;;;;;;30.68;43.18;97925.50;5014815;28;20471;-72
2022/07/23 08:25:34;;;;;;;31.77;21.73;;;;;;;30.43;44.00;97935.59;4995791;28;20105;-71
2022/07/23 08:28:04;;;;;;;27.75;21.10;;;;;;;31.11;47.03;97927.56;5008081;28;20112;-73
2022/07/23 08:30:31;;;;;;;27.83;20.17;;;;;;;31.54;39.51;97919.91;5010021;28;20481;-72
2022/07/23 08:33:01;;;;;;;27.55;20.05;;;;;;;31.17;39.58;97918.16;5009731;28;20083;-73
2022/07/23 08:35:34;;;;;;;32.05;20.60;;;;;;;30.79;40.79;97920.44;5009485;28;20096;-71
2022/07/23 08:38:02;;;;;;;27.35;20.13;;;;;;;30.90;40.77;97919.47;5006577;28;20080;-73
2022/07/23 08:40:49;;;;;;;27.88;19.90;;;;;;;31.38;39.28;97916.16;5006322;28;20538;-72
2022/07/23 08:43:22;;;;;;;31.70;21.90;;;;;;;31.94;40.25;97911.34;5008320;28;20082;-74
2022/07/23 08:45:50;;;;;;;29.38;19.48;;;;;;;32.18;40.55;97912.84;5010182;28;20041;-74
2022/07/23 08:48:28;;;;;;;27.25;20.67;;;;;;;31.69;42.49;97909.88;5009368;28;20033;-73
2022/07/23 08:50:58;;;;;;;28.67;21.63;;;;;;;32.44;38.99;97911.81;5006907;28;20458;-74
2022/07/23 08:53:26;;;;;;;28.75;21.85;;;;;;;32.46;39.07;97900.03;5009592;28;20042;-74
2022/07/23 08:55:54;;;;;;;28.13;21.65;;;;;;;31.99;37.69;97896.66;5006180;28;20087;-74
2022/07/23 08:58:21;;;;;;;29.00;22.15;;;;;;;31.96;37.75;97908.88;5007234;28;20010;-74
2022/07/23 09:00:46;;;;;;;30.90;23.63;;;;;;;32.10;36.23;97914.25;5005914;28;20557;-74
2022/07/23 09:03:18;;;;;;;33.83;24.60;;;;;;;32.48;36.92;97906.88;5013137;28;20041;-72
2022/07/23 09:05:46;;;;;;;33.35;25.65;;;;;;;33.12;39.86;97908.09;5016438;28;20026;-74
2022/07/23 09:08:16;;;;;;;34.95;25.90;;;;;;;33.05;35.66;97911.88;5011664;28;20457;-73
2022/07/23 09:11:01;;;;;;;30.52;23.23;;;;;;;33.05;34.67;97905.44;5010299;28;20045;-74
2022/07/23 09:13:33;;;;;;;30.10;24.15;;;;;;;32.83;35.22;97905.97;5010729;28;20037;-73
2022/07/23 09:16:01;;;;;;;33.97;26.05;;;;;;;32.76;35.56;97903.34;5008507;28;20022;-74
2022/07/23 09:18:43;;;;;;;30.65;24.10;;;;;;;32.43;36.10;97907.38;5008870;28;20032;-76
2022/07/23 09:21:21;;;;;;;29.83;23.27;;;;;;;32.35;37.10;97895.44;5004981;28;20198;-76
2022/07/23 09:23:54;;;;;;;29.77;24.08;;;;;;;33.25;37.58;97894.75;4989625;28;20443;-73
2022/07/23 09:26:46;;;;;;;35.95;24.38;;;;;;;33.47;35.03;97895.75;5006788;28;20040;-73
2022/07/23 09:29:23;;;;;;;31.15;23.52;;;;;;;33.74;35.39;97881.19;5004967;28;20034;-74
2022/07/23 09:31:56;;;;;;;28.42;22.08;;;;;;;33.81;33.23;97892.31;5004491;28;20100;-73
2022/07/23 09:34:38;;;;;;;33.05;23.25;;;;;;;33.67;34.95;97885.06;5005952;28;20026;-75
2022/07/23 09:37:15;;;;;;;28.73;23.15;;;;;;;33.31;35.11;97884.44;5007349;28;20038;-75
2022/07/23 09:39:42;;;;;;;32.03;23.30;;;;;;;32.84;34.96;97862.22;5008692;28;20494;-75
2022/07/23 09:42:13;;;;;;;31.60;23.20;;;;;;;32.93;35.07;97880.63;5008463;28;20517;-74
2022/07/23 09:44:43;;;;;;;31.55;22.65;;;;;;;33.45;32.82;97872.72;4991563;28;20057;-74
2022/07/23 09:47:08;;;;;;;28.98;23.25;;;;;;;33.95;35.45;97871.22;5008980;28;20041;-72
2022/07/23 09:49:34;;;;;;;29.45;22.20;;;;;;;33.95;33.48;97863.50;5008956;28;20030;-74
2022/07/23 09:52:01;;;;;;;28.80;21.70;;;;;;;33.94;32.39;97873.28;4991673;28;20033;-73
2022/07/23 09:54:30;;;;;;;30.25;21.48;;;;;;;34.21;31.27;97867.97;5008886;28;20040;-72
2022/07/23 09:56:58;;;;;;;24.88;20.67;;;;;;;34.20;33.37;97862.75;5010164;28;20029;-74
2022/07/23 09:59:28;;;;;;;31.60;21.20;;;;;;;34.26;34.45;97863.75;5009708;28;20038;-74
2022/07/23 10:01:56;;;;;;;27.55;20.73;;;;;;;34.20;35.70;97857.06;5010076;28;20034;-74
2022/07/23 10:04:23;;;;;;;26.17;20.33;;;;;;;33.31;36.24;97847.56;5007400;28;20040;-72
2022/07/23 10:06:53;;;;;;;31.42;20.85;;;;;;;33.34;34.18;97844.63;5010085;28;20030;-74
2022/07/23 10:09:23;;;;;;;25.30;20.02;;;;;;;34.35;32.01;97852.50;5009315;28;20548;-73
2022/07/23 10:11:50;;;;;;;25.42;20.45;;;;;;;34.99;30.87;97851.13;5009885;28;20025;-73
2022/07/23 10:14:16;;;;;;;24.90;19.92;;;;;;;35.08;30.79;97848.34;5009851;28;20467;-74
2022/07/23 10:16:41;;;;;;;22.77;18.92;;;;;;;36.06;30.73;97842.25;5009837;28;20108;-73
2022/07/23 10:19:07;;;;;;;21.48;18.42;;;;;;;36.18;29.01;97841.34;5009733;28;20144;-74
2022/07/23 10:21:45;;;;;;;23.90;17.52;;;;;;;35.49;31.35;97838.72;5009715;28;20026;-74
2022/07/23 10:24:21;;;;;;;22.60;18.77;;;;;;;35.51;30.02;97835.41;5013047;28;20049;-73
2022/07/23 10:26:49;;;;;;;22.52;18.25;;;;;;;36.26;28.04;97834.06;5013740;28;20446;-74
2022/07/23 10:29:41;;;;;;;20.42;17.45;;;;;;;36.57;29.38;97834.03;5013064;28;20121;-74
2022/07/23 10:32:51;;;;;;;20.02;15.73;;;;;;;36.09;30.83;97829.91;4996249;28;20033;-74
2022/07/23 10:35:22;;;;;;;24.48;17.50;;;;;;;35.94;28.74;97821.09;5018315;28;20052;-75
2022/07/23 10:38:00;;;;;;;24.33;17.80;;;;;;;36.04;29.32;97817.03;5016493;28;20022;-74
2022/07/23 10:40:26;;;;;;;19.83;16.33;;;;;;;36.24;28.73;97813.81;5012561;28;20041;-74
2022/07/23 10:42:54;;;;;;;20.52;16.00;;;;;;;36.67;27.53;97819.31;5013139;28;20030;-74
2022/07/23 10:45:32;;;;;;;20.27;15.80;;;;;;;36.39;26.98;97809.09;5012792;28;20064;-73
2022/07/23 10:48:27;;;;;;;17.83;14.57;;;;;;;35.98;26.57;97807.50;5012623;28;20372;-72
2022/07/23 10:51:10;;;;;;;17.90;13.73;;;;;;;36.88;26.08;97804.09;5007485;28;20049;-72
2022/07/23 10:53:51;;;;;;;16.77;12.65;;;;;;;37.07;26.01;97801.28;5012847;28;20040;-73
2022/07/23 10:56:55;;;;;;;20.98;14.55;;;;;;;36.50;27.44;97793.13;4995750;28;20026;-73
2022/07/23 10:59:21;;;;;;;18.47;14.43;;;;;;;36.29;25.79;97784.69;4989293;28;20120;-73
2022/07/23 11:01:46;;;;;;;16.75;12.57;;;;;;;36.49;25.67;97779.34;5012540;28;20437;-73
2022/07/23 11:04:13;;;;;;;18.25;13.65;;;;;;;36.27;26.12;97773.75;5009201;28;20034;-73
2022/07/23 11:06:50;;;;;;;17.02;13.15;;;;;;;35.70;24.39;97778.13;5012341;28;20079;-74
2022/07/23 11:09:29;;;;;;;16.80;12.45;;;;;;;36.27;24.26;97772.97;5012382;28;20062;-73
2022/07/23 11:12:30;;;;;;;19.13;13.48;;;;;;;36.36;23.79;97764.44;5012364;28;20061;-74
2022/07/23 11:15:06;;;;;;;15.85;13.85;;;;;;;36.17;23.44;97768.50;4932121;29;20413;-73
2022/07/23 11:17:47;;;;;;;18.60;13.00;;;;;;;36.41;22.41;97770.28;5000003;28;20041;-72
2022/07/23 11:20:15;;;;;;;18.67;13.95;;;;;;;35.87;24.88;97756.66;5006936;28;20049;-73